Sahagun, Spain
Current Conditions -  °F | °C
As of 2:00 PM on Friday 24 Oct 2014 (Local Time) from LELN Reporting Station
Clear Clear  
Wind Chill: 20°   Ceiling: Unl
Heat Index: 20°   Visibility: 6mi
Dew Point: 11°   Wind: 1mph
Humidity: 56%   Direction: NA
Pressure: 30.21"   Gusts: NA
Location:  42.37°N, 5.03°W
Report Text: LELN 241200Z VRB01KT CAVOK 20/11 Q1023
Loading
Personal Weather Stations






























Interactive Weather Map
Tropical Storm Tracking
New forecast layout! Learn more

10-Day Weather Forecast

Advertisements
Track Severe Weather on mobile